sensor_id;sensor_type;location;lat;lon;timestamp;P1;durP1;ratioP1;P2;durP2;ratioP2
3881;SDS011;1956;53.482;10.238;2023-02-17T00:04:10;83.23;;;41.83;;
3881;SDS011;1956;53.482;10.238;2023-02-17T00:09:11;85.40;;;44.67;;
3881;SDS011;1956;53.482;10.238;2023-02-17T00:14:11;101.00;;;45.60;;
3881;SDS011;1956;53.482;10.238;2023-02-17T00:19:12;69.63;;;41.20;;
3881;SDS011;1956;53.482;10.238;2023-02-17T00:24:26;78.43;;;39.97;;
3881;SDS011;1956;53.482;10.238;2023-02-17T00:29:27;90.70;;;40.87;;
3881;SDS011;1956;53.482;10.238;2023-02-17T00:34:28;64.57;;;38.80;;
3881;SDS011;1956;53.482;10.238;2023-02-17T00:39:28;71.37;;;38.60;;
3881;SDS011;1956;53.482;10.238;2023-02-17T00:44:28;59.77;;;37.37;;
3881;SDS011;1956;53.482;10.238;2023-02-17T00:49:29;72.57;;;36.77;;
3881;SDS011;1956;53.482;10.238;2023-02-17T00:54:29;75.67;;;36.30;;
3881;SDS011;1956;53.482;10.238;2023-02-17T00:59:30;69.00;;;37.50;;
3881;SDS011;1956;53.482;10.238;2023-02-17T01:04:30;55.55;;;35.00;;
3881;SDS011;1956;53.482;10.238;2023-02-17T01:09:30;65.37;;;36.60;;
3881;SDS011;1956;53.482;10.238;2023-02-17T01:14:31;61.43;;;36.70;;
3881;SDS011;1956;53.482;10.238;2023-02-17T01:19:31;54.93;;;33.60;;
3881;SDS011;1956;53.482;10.238;2023-02-17T01:24:31;66.00;;;36.50;;
3881;SDS011;1956;53.482;10.238;2023-02-17T01:29:32;57.73;;;34.37;;
3881;SDS011;1956;53.482;10.238;2023-02-17T01:34:32;80.00;;;37.97;;
3881;SDS011;1956;53.482;10.238;2023-02-17T01:39:32;68.10;;;37.25;;
3881;SDS011;1956;53.482;10.238;2023-02-17T01:44:33;73.83;;;39.13;;
3881;SDS011;1956;53.482;10.238;2023-02-17T01:49:39;83.97;;;40.90;;
3881;SDS011;1956;53.482;10.238;2023-02-17T01:54:44;90.80;;;39.77;;
3881;SDS011;1956;53.482;10.238;2023-02-17T01:59:46;65.63;;;37.57;;
3881;SDS011;1956;53.482;10.238;2023-02-17T02:04:48;67.57;;;38.97;;
3881;SDS011;1956;53.482;10.238;2023-02-17T02:09:54;71.93;;;38.50;;
3881;SDS011;1956;53.482;10.238;2023-02-17T02:14:59;82.43;;;38.33;;
3881;SDS011;1956;53.482;10.238;2023-02-17T02:20:39;73.07;;;39.90;;
3881;SDS011;1956;53.482;10.238;2023-02-17T02:26:38;66.07;;;37.33;;
3881;SDS011;1956;53.482;10.238;2023-02-17T02:36:55;72.93;;;37.20;;
3881;SDS011;1956;53.482;10.238;2023-02-17T02:42:01;62.30;;;35.67;;
3881;SDS011;1956;53.482;10.238;2023-02-17T02:47:29;61.93;;;35.93;;
3881;SDS011;1956;53.482;10.238;2023-02-17T02:58:21;63.80;;;33.60;;
3881;SDS011;1956;53.482;10.238;2023-02-17T03:03:37;99.23;;;38.07;;
3881;SDS011;1956;53.482;10.238;2023-02-17T03:08:58;55.10;;;30.07;;
3881;SDS011;1956;53.482;10.238;2023-02-17T03:14:03;45.43;;;28.57;;
3881;SDS011;1956;53.482;10.238;2023-02-17T03:19:05;52.90;;;28.70;;
3881;SDS011;1956;53.482;10.238;2023-02-17T03:24:06;59.13;;;27.83;;
3881;SDS011;1956;53.482;10.238;2023-02-17T03:29:06;54.03;;;26.60;;
3881;SDS011;1956;53.482;10.238;2023-02-17T03:34:07;45.40;;;27.03;;
3881;SDS011;1956;53.482;10.238;2023-02-17T03:39:09;38.00;;;26.13;;
3881;SDS011;1956;53.482;10.238;2023-02-17T03:44:10;41.90;;;25.43;;
3881;SDS011;1956;53.482;10.238;2023-02-17T03:49:10;39.13;;;24.80;;
3881;SDS011;1956;53.482;10.238;2023-02-17T03:54:11;50.40;;;26.00;;
3881;SDS011;1956;53.482;10.238;2023-02-17T03:59:11;39.03;;;24.27;;
3881;SDS011;1956;53.482;10.238;2023-02-17T04:04:11;58.70;;;26.67;;
3881;SDS011;1956;53.482;10.238;2023-02-17T04:09:12;41.93;;;24.57;;
3881;SDS011;1956;53.482;10.238;2023-02-17T04:14:12;45.37;;;26.00;;
3881;SDS011;1956;53.482;10.238;2023-02-17T04:19:12;38.67;;;23.37;;
3881;SDS011;1956;53.482;10.238;2023-02-17T04:24:13;36.57;;;22.03;;
3881;SDS011;1956;53.482;10.238;2023-02-17T04:29:13;46.23;;;23.73;;
3881;SDS011;1956;53.482;10.238;2023-02-17T04:34:14;42.77;;;23.97;;
3881;SDS011;1956;53.482;10.238;2023-02-17T04:39:14;36.90;;;21.30;;
3881;SDS011;1956;53.482;10.238;2023-02-17T04:44:14;44.33;;;23.80;;
3881;SDS011;1956;53.482;10.238;2023-02-17T04:49:15;36.67;;;21.30;;
3881;SDS011;1956;53.482;10.238;2023-02-17T04:54:15;47.73;;;22.60;;
3881;SDS011;1956;53.482;10.238;2023-02-17T04:59:15;48.13;;;22.70;;
3881;SDS011;1956;53.482;10.238;2023-02-17T05:04:16;42.27;;;24.07;;
3881;SDS011;1956;53.482;10.238;2023-02-17T05:09:16;38.00;;;22.43;;
3881;SDS011;1956;53.482;10.238;2023-02-17T05:14:16;36.60;;;21.60;;
3881;SDS011;1956;53.482;10.238;2023-02-17T05:19:17;40.70;;;22.83;;
3881;SDS011;1956;53.482;10.238;2023-02-17T05:24:17;42.00;;;25.00;;
3881;SDS011;1956;53.482;10.238;2023-02-17T05:29:17;56.87;;;23.50;;
3881;SDS011;1956;53.482;10.238;2023-02-17T05:34:18;51.23;;;23.77;;
3881;SDS011;1956;53.482;10.238;2023-02-17T05:39:18;49.50;;;26.03;;
3881;SDS011;1956;53.482;10.238;2023-02-17T05:44:19;52.60;;;23.50;;
3881;SDS011;1956;53.482;10.238;2023-02-17T05:49:20;54.77;;;27.07;;
3881;SDS011;1956;53.482;10.238;2023-02-17T05:54:20;61.00;;;27.00;;
3881;SDS011;1956;53.482;10.238;2023-02-17T05:59:21;65.17;;;30.00;;
3881;SDS011;1956;53.482;10.238;2023-02-17T06:04:21;76.27;;;30.40;;
3881;SDS011;1956;53.482;10.238;2023-02-17T06:09:22;65.37;;;29.40;;
3881;SDS011;1956;53.482;10.238;2023-02-17T06:14:22;61.70;;;28.53;;
3881;SDS011;1956;53.482;10.238;2023-02-17T06:19:22;76.00;;;31.03;;
3881;SDS011;1956;53.482;10.238;2023-02-17T06:24:23;69.63;;;31.93;;
3881;SDS011;1956;53.482;10.238;2023-02-17T06:29:24;69.13;;;28.87;;
3881;SDS011;1956;53.482;10.238;2023-02-17T06:34:24;71.97;;;29.40;;
3881;SDS011;1956;53.482;10.238;2023-02-17T06:39:25;71.60;;;28.77;;
3881;SDS011;1956;53.482;10.238;2023-02-17T06:44:25;67.30;;;27.73;;
3881;SDS011;1956;53.482;10.238;2023-02-17T06:49:26;69.53;;;28.73;;
3881;SDS011;1956;53.482;10.238;2023-02-17T06:54:26;70.77;;;30.27;;
3881;SDS011;1956;53.482;10.238;2023-02-17T06:59:27;76.30;;;29.00;;
3881;SDS011;1956;53.482;10.238;2023-02-17T07:04:27;68.80;;;29.03;;
3881;SDS011;1956;53.482;10.238;2023-02-17T07:09:27;76.10;;;30.57;;
3881;SDS011;1956;53.482;10.238;2023-02-17T07:14:28;68.43;;;30.03;;
3881;SDS011;1956;53.482;10.238;2023-02-17T07:19:28;77.47;;;31.70;;
3881;SDS011;1956;53.482;10.238;2023-02-17T07:24:29;92.03;;;33.40;;
3881;SDS011;1956;53.482;10.238;2023-02-17T07:29:29;84.40;;;32.63;;
3881;SDS011;1956;53.482;10.238;2023-02-17T07:34:29;83.70;;;32.37;;
3881;SDS011;1956;53.482;10.238;2023-02-17T07:39:30;90.13;;;33.73;;
3881;SDS011;1956;53.482;10.238;2023-02-17T07:44:30;88.80;;;33.90;;
3881;SDS011;1956;53.482;10.238;2023-02-17T07:49:31;85.83;;;32.97;;
3881;SDS011;1956;53.482;10.238;2023-02-17T07:54:31;95.07;;;33.30;;
3881;SDS011;1956;53.482;10.238;2023-02-17T07:59:32;90.73;;;36.10;;
3881;SDS011;1956;53.482;10.238;2023-02-17T08:04:32;90.80;;;34.07;;
3881;SDS011;1956;53.482;10.238;2023-02-17T08:09:32;85.03;;;33.93;;
3881;SDS011;1956;53.482;10.238;2023-02-17T08:14:51;92.57;;;32.57;;
3881;SDS011;1956;53.482;10.238;2023-02-17T08:19:51;76.80;;;31.23;;
3881;SDS011;1956;53.482;10.238;2023-02-17T08:24:52;71.20;;;28.27;;
3881;SDS011;1956;53.482;10.238;2023-02-17T08:29:52;78.00;;;30.97;;
3881;SDS011;1956;53.482;10.238;2023-02-17T08:34:56;76.80;;;29.17;;
3881;SDS011;1956;53.482;10.238;2023-02-17T08:39:56;65.33;;;27.93;;
3881;SDS011;1956;53.482;10.238;2023-02-17T08:44:58;58.40;;;23.70;;
3881;SDS011;1956;53.482;10.238;2023-02-17T08:49:58;58.17;;;25.10;;
3881;SDS011;1956;53.482;10.238;2023-02-17T08:54:58;51.43;;;21.97;;
3881;SDS011;1956;53.482;10.238;2023-02-17T08:59:59;46.80;;;21.10;;
3881;SDS011;1956;53.482;10.238;2023-02-17T09:04:59;56.60;;;21.70;;
3881;SDS011;1956;53.482;10.238;2023-02-17T09:09:59;41.20;;;19.70;;
3881;SDS011;1956;53.482;10.238;2023-02-17T09:15:00;57.57;;;22.10;;
3881;SDS011;1956;53.482;10.238;2023-02-17T09:20:00;43.07;;;18.67;;
3881;SDS011;1956;53.482;10.238;2023-02-17T09:25:01;53.13;;;19.80;;
3881;SDS011;1956;53.482;10.238;2023-02-17T09:30:02;44.13;;;18.67;;
3881;SDS011;1956;53.482;10.238;2023-02-17T09:35:02;41.43;;;18.70;;
3881;SDS011;1956;53.482;10.238;2023-02-17T09:40:05;42.97;;;17.70;;
3881;SDS011;1956;53.482;10.238;2023-02-17T09:45:16;45.50;;;18.40;;
3881;SDS011;1956;53.482;10.238;2023-02-17T09:56:00;35.37;;;17.10;;
3881;SDS011;1956;53.482;10.238;2023-02-17T10:01:06;33.40;;;16.60;;
3881;SDS011;1956;53.482;10.238;2023-02-17T10:06:13;34.70;;;16.00;;
3881;SDS011;1956;53.482;10.238;2023-02-17T10:11:30;32.50;;;15.13;;
3881;SDS011;1956;53.482;10.238;2023-02-17T10:16:38;33.83;;;16.57;;
3881;SDS011;1956;53.482;10.238;2023-02-17T10:21:45;25.47;;;14.27;;
3881;SDS011;1956;53.482;10.238;2023-02-17T10:27:02;32.10;;;15.30;;
3881;SDS011;1956;53.482;10.238;2023-02-17T10:32:28;27.33;;;14.77;;
3881;SDS011;1956;53.482;10.238;2023-02-17T10:38:16;33.40;;;16.67;;
3881;SDS011;1956;53.482;10.238;2023-02-17T10:43:02;37.43;;;17.93;;
3881;SDS011;1956;53.482;10.238;2023-02-17T10:48:08;42.03;;;16.00;;
3881;SDS011;1956;53.482;10.238;2023-02-17T10:53:17;43.27;;;18.17;;
3881;SDS011;1956;53.482;10.238;2023-02-17T10:58:27;39.90;;;18.30;;
3881;SDS011;1956;53.482;10.238;2023-02-17T11:03:33;43.30;;;19.10;;
3881;SDS011;1956;53.482;10.238;2023-02-17T11:08:43;49.00;;;20.60;;
3881;SDS011;1956;53.482;10.238;2023-02-17T11:14:27;46.10;;;18.07;;
3881;SDS011;1956;53.482;10.238;2023-02-17T11:19:27;34.00;;;15.80;;
3881;SDS011;1956;53.482;10.238;2023-02-17T11:24:34;39.57;;;19.73;;
3881;SDS011;1956;53.482;10.238;2023-02-17T11:29:35;40.90;;;18.97;;
3881;SDS011;1956;53.482;10.238;2023-02-17T11:34:36;35.80;;;18.27;;
3881;SDS011;1956;53.482;10.238;2023-02-17T11:39:38;44.00;;;19.43;;
3881;SDS011;1956;53.482;10.238;2023-02-17T11:44:48;35.57;;;18.17;;
3881;SDS011;1956;53.482;10.238;2023-02-17T11:55:28;38.90;;;17.97;;
3881;SDS011;1956;53.482;10.238;2023-02-17T12:06:05;47.40;;;19.97;;
3881;SDS011;1956;53.482;10.238;2023-02-17T12:11:18;39.20;;;17.93;;
3881;SDS011;1956;53.482;10.238;2023-02-17T12:16:34;41.23;;;19.53;;
3881;SDS011;1956;53.482;10.238;2023-02-17T12:22:00;44.23;;;19.30;;
3881;SDS011;1956;53.482;10.238;2023-02-17T12:33:07;42.77;;;17.97;;
3881;SDS011;1956;53.482;10.238;2023-02-17T12:38:14;33.40;;;16.60;;
3881;SDS011;1956;53.482;10.238;2023-02-17T12:48:53;25.33;;;13.40;;
3881;SDS011;1956;53.482;10.238;2023-02-17T12:53:58;25.33;;;13.10;;
3881;SDS011;1956;53.482;10.238;2023-02-17T12:59:10;26.40;;;12.87;;
3881;SDS011;1956;53.482;10.238;2023-02-17T13:04:14;21.93;;;10.17;;
3881;SDS011;1956;53.482;10.238;2023-02-17T13:09:19;20.23;;;11.30;;
3881;SDS011;1956;53.482;10.238;2023-02-17T13:14:27;22.10;;;10.93;;
3881;SDS011;1956;53.482;10.238;2023-02-17T13:19:32;23.97;;;10.17;;
3881;SDS011;1956;53.482;10.238;2023-02-17T13:24:37;16.67;;;9.03;;
3881;SDS011;1956;53.482;10.238;2023-02-17T13:29:38;15.53;;;8.60;;
3881;SDS011;1956;53.482;10.238;2023-02-17T13:34:40;15.73;;;6.80;;
3881;SDS011;1956;53.482;10.238;2023-02-17T13:39:42;13.40;;;6.37;;
3881;SDS011;1956;53.482;10.238;2023-02-17T13:44:43;15.80;;;6.83;;
3881;SDS011;1956;53.482;10.238;2023-02-17T13:49:50;13.40;;;7.20;;
3881;SDS011;1956;53.482;10.238;2023-02-17T13:54:55;9.40;;;7.27;;
3881;SDS011;1956;53.482;10.238;2023-02-17T14:00:06;17.30;;;8.63;;
3881;SDS011;1956;53.482;10.238;2023-02-17T14:05:36;14.13;;;7.93;;
3881;SDS011;1956;53.482;10.238;2023-02-17T14:10:37;19.50;;;8.97;;
3881;SDS011;1956;53.482;10.238;2023-02-17T14:15:48;27.97;;;10.47;;
3881;SDS011;1956;53.482;10.238;2023-02-17T14:21:03;27.23;;;9.93;;
3881;SDS011;1956;53.482;10.238;2023-02-17T14:26:10;19.53;;;8.77;;
3881;SDS011;1956;53.482;10.238;2023-02-17T14:31:17;21.33;;;8.13;;
3881;SDS011;1956;53.482;10.238;2023-02-17T14:36:34;15.20;;;8.07;;
3881;SDS011;1956;53.482;10.238;2023-02-17T14:41:36;12.40;;;8.40;;
3881;SDS011;1956;53.482;10.238;2023-02-17T14:46:37;12.03;;;6.57;;
3881;SDS011;1956;53.482;10.238;2023-02-17T14:51:37;16.67;;;6.93;;
3881;SDS011;1956;53.482;10.238;2023-02-17T14:56:40;15.67;;;6.83;;
3881;SDS011;1956;53.482;10.238;2023-02-17T15:01:43;15.00;;;5.87;;
3881;SDS011;1956;53.482;10.238;2023-02-17T15:06:44;13.33;;;3.97;;
3881;SDS011;1956;53.482;10.238;2023-02-17T15:11:46;10.23;;;3.10;;
3881;SDS011;1956;53.482;10.238;2023-02-17T15:16:48;11.37;;;2.63;;
3881;SDS011;1956;53.482;10.238;2023-02-17T15:21:49;27.03;;;3.00;;
3881;SDS011;1956;53.482;10.238;2023-02-17T15:26:50;11.83;;;2.63;;
3881;SDS011;1956;53.482;10.238;2023-02-17T15:31:50;13.53;;;3.80;;
3881;SDS011;1956;53.482;10.238;2023-02-17T15:36:52;22.87;;;4.03;;
3881;SDS011;1956;53.482;10.238;2023-02-17T15:41:52;13.90;;;3.10;;
3881;SDS011;1956;53.482;10.238;2023-02-17T15:46:54;19.03;;;3.40;;
3881;SDS011;1956;53.482;10.238;2023-02-17T15:51:54;25.83;;;5.50;;
3881;SDS011;1956;53.482;10.238;2023-02-17T15:56:55;21.07;;;3.73;;
3881;SDS011;1956;53.482;10.238;2023-02-17T16:01:55;20.83;;;3.90;;
3881;SDS011;1956;53.482;10.238;2023-02-17T16:06:56;30.10;;;3.93;;
3881;SDS011;1956;53.482;10.238;2023-02-17T16:11:56;15.90;;;4.10;;
3881;SDS011;1956;53.482;10.238;2023-02-17T16:16:57;23.17;;;4.80;;
3881;SDS011;1956;53.482;10.238;2023-02-17T16:21:57;24.70;;;4.20;;
3881;SDS011;1956;53.482;10.238;2023-02-17T16:26:58;18.20;;;4.00;;
3881;SDS011;1956;53.482;10.238;2023-02-17T16:31:58;19.17;;;4.37;;
3881;SDS011;1956;53.482;10.238;2023-02-17T16:37:00;26.03;;;4.20;;
3881;SDS011;1956;53.482;10.238;2023-02-17T16:42:02;28.83;;;4.30;;
3881;SDS011;1956;53.482;10.238;2023-02-17T16:47:03;21.60;;;4.27;;
3881;SDS011;1956;53.482;10.238;2023-02-17T16:52:06;22.00;;;4.10;;
3881;SDS011;1956;53.482;10.238;2023-02-17T16:57:22;17.63;;;3.93;;
3881;SDS011;1956;53.482;10.238;2023-02-17T17:02:22;28.20;;;4.40;;
3881;SDS011;1956;53.482;10.238;2023-02-17T17:07:23;22.67;;;4.00;;
3881;SDS011;1956;53.482;10.238;2023-02-17T17:12:23;32.97;;;4.87;;
3881;SDS011;1956;53.482;10.238;2023-02-17T17:17:23;20.73;;;3.60;;
3881;SDS011;1956;53.482;10.238;2023-02-17T17:22:24;22.60;;;3.30;;
3881;SDS011;1956;53.482;10.238;2023-02-17T17:27:25;19.60;;;3.83;;
3881;SDS011;1956;53.482;10.238;2023-02-17T17:32:25;10.50;;;3.10;;
3881;SDS011;1956;53.482;10.238;2023-02-17T17:37:25;21.30;;;3.83;;
3881;SDS011;1956;53.482;10.238;2023-02-17T17:42:26;28.30;;;3.83;;
3881;SDS011;1956;53.482;10.238;2023-02-17T17:47:26;34.47;;;3.50;;
3881;SDS011;1956;53.482;10.238;2023-02-17T17:52:26;24.50;;;4.43;;
3881;SDS011;1956;53.482;10.238;2023-02-17T17:57:27;19.30;;;4.30;;
3881;SDS011;1956;53.482;10.238;2023-02-17T18:02:27;28.67;;;3.70;;
3881;SDS011;1956;53.482;10.238;2023-02-17T18:07:27;20.13;;;4.53;;
3881;SDS011;1956;53.482;10.238;2023-02-17T18:12:28;37.03;;;4.57;;
3881;SDS011;1956;53.482;10.238;2023-02-17T18:17:30;22.47;;;4.77;;
3881;SDS011;1956;53.482;10.238;2023-02-17T18:22:32;13.03;;;3.40;;
3881;SDS011;1956;53.482;10.238;2023-02-17T18:27:43;17.07;;;3.40;;
3881;SDS011;1956;53.482;10.238;2023-02-17T18:32:44;21.10;;;4.07;;
3881;SDS011;1956;53.482;10.238;2023-02-17T18:37:45;20.97;;;4.00;;
3881;SDS011;1956;53.482;10.238;2023-02-17T18:42:46;28.37;;;3.90;;
3881;SDS011;1956;53.482;10.238;2023-02-17T18:47:47;23.87;;;3.83;;
3881;SDS011;1956;53.482;10.238;2023-02-17T18:52:47;20.47;;;4.13;;
3881;SDS011;1956;53.482;10.238;2023-02-17T18:57:47;18.37;;;3.90;;
3881;SDS011;1956;53.482;10.238;2023-02-17T19:02:48;22.73;;;4.57;;
3881;SDS011;1956;53.482;10.238;2023-02-17T19:07:48;17.03;;;3.90;;
3881;SDS011;1956;53.482;10.238;2023-02-17T19:12:49;15.10;;;3.30;;
3881;SDS011;1956;53.482;10.238;2023-02-17T19:17:53;21.93;;;4.23;;
3881;SDS011;1956;53.482;10.238;2023-02-17T19:22:54;23.47;;;3.83;;
3881;SDS011;1956;53.482;10.238;2023-02-17T19:27:54;28.23;;;4.90;;
3881;SDS011;1956;53.482;10.238;2023-02-17T19:32:55;35.40;;;4.57;;
3881;SDS011;1956;53.482;10.238;2023-02-17T19:37:55;20.90;;;4.27;;
3881;SDS011;1956;53.482;10.238;2023-02-17T19:42:55;24.33;;;4.67;;
3881;SDS011;1956;53.482;10.238;2023-02-17T19:47:56;15.73;;;4.70;;
3881;SDS011;1956;53.482;10.238;2023-02-17T19:52:56;30.07;;;4.17;;
3881;SDS011;1956;53.482;10.238;2023-02-17T19:57:56;33.90;;;3.80;;
3881;SDS011;1956;53.482;10.238;2023-02-17T20:02:57;33.80;;;4.50;;
3881;SDS011;1956;53.482;10.238;2023-02-17T20:07:57;17.73;;;4.00;;
3881;SDS011;1956;53.482;10.238;2023-02-17T20:12:59;28.70;;;6.40;;
3881;SDS011;1956;53.482;10.238;2023-02-17T20:17:59;26.70;;;4.60;;
3881;SDS011;1956;53.482;10.238;2023-02-17T20:23:00;25.83;;;4.40;;
3881;SDS011;1956;53.482;10.238;2023-02-17T20:28:00;33.63;;;4.70;;
3881;SDS011;1956;53.482;10.238;2023-02-17T20:33:01;26.70;;;5.40;;
3881;SDS011;1956;53.482;10.238;2023-02-17T20:38:01;28.50;;;4.10;;
3881;SDS011;1956;53.482;10.238;2023-02-17T20:43:05;35.40;;;5.07;;
3881;SDS011;1956;53.482;10.238;2023-02-17T20:48:05;19.40;;;5.40;;
3881;SDS011;1956;53.482;10.238;2023-02-17T20:53:06;34.70;;;4.67;;
3881;SDS011;1956;53.482;10.238;2023-02-17T20:58:06;27.90;;;4.33;;
3881;SDS011;1956;53.482;10.238;2023-02-17T21:03:08;26.50;;;4.17;;
3881;SDS011;1956;53.482;10.238;2023-02-17T21:08:09;36.90;;;3.53;;
3881;SDS011;1956;53.482;10.238;2023-02-17T21:13:09;21.07;;;3.97;;
3881;SDS011;1956;53.482;10.238;2023-02-17T21:18:10;14.40;;;4.60;;
3881;SDS011;1956;53.482;10.238;2023-02-17T21:23:10;27.30;;;4.43;;
3881;SDS011;1956;53.482;10.238;2023-02-17T21:28:10;15.40;;;3.10;;
3881;SDS011;1956;53.482;10.238;2023-02-17T21:33:11;25.93;;;4.23;;
3881;SDS011;1956;53.482;10.238;2023-02-17T21:38:11;38.57;;;4.63;;
3881;SDS011;1956;53.482;10.238;2023-02-17T21:43:14;24.03;;;4.03;;
3881;SDS011;1956;53.482;10.238;2023-02-17T21:48:34;27.87;;;4.37;;
3881;SDS011;1956;53.482;10.238;2023-02-17T21:53:36;30.93;;;4.43;;
3881;SDS011;1956;53.482;10.238;2023-02-17T21:58:37;18.37;;;3.70;;
3881;SDS011;1956;53.482;10.238;2023-02-17T22:03:38;22.17;;;4.60;;
3881;SDS011;1956;53.482;10.238;2023-02-17T22:08:38;43.97;;;4.93;;
3881;SDS011;1956;53.482;10.238;2023-02-17T22:13:38;24.23;;;4.40;;
3881;SDS011;1956;53.482;10.238;2023-02-17T22:18:39;18.33;;;4.20;;
3881;SDS011;1956;53.482;10.238;2023-02-17T22:23:39;25.43;;;5.53;;
3881;SDS011;1956;53.482;10.238;2023-02-17T22:28:40;32.67;;;4.90;;
3881;SDS011;1956;53.482;10.238;2023-02-17T22:33:41;17.97;;;4.47;;
3881;SDS011;1956;53.482;10.238;2023-02-17T22:38:42;32.57;;;4.20;;
3881;SDS011;1956;53.482;10.238;2023-02-17T22:43:43;22.43;;;3.63;;
3881;SDS011;1956;53.482;10.238;2023-02-17T22:48:44;15.20;;;2.63;;
3881;SDS011;1956;53.482;10.238;2023-02-17T22:53:45;24.53;;;4.33;;
3881;SDS011;1956;53.482;10.238;2023-02-17T22:58:46;21.80;;;3.40;;
3881;SDS011;1956;53.482;10.238;2023-02-17T23:03:48;15.10;;;4.00;;
3881;SDS011;1956;53.482;10.238;2023-02-17T23:08:49;23.77;;;3.47;;
3881;SDS011;1956;53.482;10.238;2023-02-17T23:13:51;36.90;;;4.63;;
3881;SDS011;1956;53.482;10.238;2023-02-17T23:18:52;20.37;;;3.10;;
3881;SDS011;1956;53.482;10.238;2023-02-17T23:23:52;37.13;;;4.60;;
3881;SDS011;1956;53.482;10.238;2023-02-17T23:28:53;27.17;;;5.30;;
3881;SDS011;1956;53.482;10.238;2023-02-17T23:33:53;16.50;;;3.55;;
3881;SDS011;1956;53.482;10.238;2023-02-17T23:38:53;15.93;;;4.40;;
3881;SDS011;1956;53.482;10.238;2023-02-17T23:43:54;19.73;;;3.70;;
3881;SDS011;1956;53.482;10.238;2023-02-17T23:48:55;15.73;;;3.33;;
3881;SDS011;1956;53.482;10.238;2023-02-17T23:53:55;19.40;;;3.83;;
3881;SDS011;1956;53.482;10.238;2023-02-17T23:58:55;19.03;;;3.50;;
